Time;durP1;ratioP1;P1;durP2;ratioP2;P2;SDS_P1;SDS_P2;PMS_P1;PMS_P2;Temp;Humidity;BMP_temperature;BMP_pressure;BME280_temperature;BME280_humidity;BME280_pressure;Samples;Min_cycle;Max_cycle;Signal;HPM_P1;HPM_P2
2022/11/07 00:00:24;;;;;;;;;;;;;;;8.02;100.00;97877.28;5117453;28;20015;-62
2022/11/07 00:02:51;;;;;;;;;;;;;;;8.09;100.00;97882.44;5117386;28;19924;-62
2022/11/07 00:05:18;;;;;;;;;;;;;;;8.09;100.00;97882.44;5120804;28;19930;-62
2022/11/07 00:07:44;;;;;;;;;;;;;;;8.16;100.00;97883.06;5120940;28;19946;-62
2022/11/07 00:10:11;;;;;;;;;;;;;;;8.08;100.00;97892.25;5117268;28;20268;-63
2022/11/07 00:12:37;;;;;;;;;;;;;;;8.02;100.00;97892.44;5117239;28;19946;-62
2022/11/07 00:15:05;;;;;;;;;;;;;;;8.07;100.00;97889.84;5119830;28;19959;-63
2022/11/07 00:17:31;;;;;;;;;;;;;;;8.08;100.00;97886.13;5120714;28;20397;-63
2022/11/07 00:19:58;;;;;;;;;;;;;;;8.00;100.00;97895.34;5122874;28;19970;-62
2022/11/07 00:22:25;;;;;;;;;;;;;;;7.97;100.00;97895.03;5124340;28;20453;-62
2022/11/07 00:24:52;;;;;;;;;;;;;;;8.01;100.00;97890.84;5124675;28;19934;-62
2022/11/07 00:27:18;;;;;;;;;;;;;;;7.95;100.00;97897.16;5124735;28;19970;-62
2022/11/07 00:29:45;;;;;;;;;;;;;;;7.93;100.00;97892.06;5124859;28;20038;-62
2022/11/07 00:32:11;;;;;;;;;;;;;;;8.04;100.00;97885.03;5120966;28;19924;-62
2022/11/07 00:34:37;;;;;;;;;;;;;;;8.01;100.00;97883.69;5121294;28;20027;-63
2022/11/07 00:37:03;;;;;;;;;;;;;;;8.05;100.00;97889.28;5123597;28;19967;-62
2022/11/07 00:39:31;;;;;;;;;;;;;;;8.03;100.00;97894.06;5124714;28;19987;-63
2022/11/07 00:41:57;;;;;;;;;;;;;;;8.09;100.00;97893.88;5123059;28;20427;-62
2022/11/07 00:44:24;;;;;;;;;;;;;;;8.11;100.00;97890.94;5120895;28;19920;-62
2022/11/07 00:46:50;;;;;;;;;;;;;;;8.16;100.00;97899.00;5121417;28;19991;-63
2022/11/07 00:49:16;;;;;;;;;;;;;;;8.13;100.00;97894.19;5124234;28;19975;-63
2022/11/07 00:51:43;;;;;;;;;;;;;;;8.02;100.00;97895.09;5124268;28;19927;-63
2022/11/07 00:54:09;;;;;;;;;;;;;;;8.01;100.00;97896.16;5127087;28;19924;-62
2022/11/07 00:56:37;;;;;;;;;;;;;;;7.95;100.00;97897.94;5120618;28;19985;-62
2022/11/07 00:59:03;;;;;;;;;;;;;;;7.96;100.00;97893.41;5122833;28;20003;-63
2022/11/07 01:01:30;;;;;;;;;;;;;;;7.98;100.00;97907.28;5123995;28;19950;-62
2022/11/07 01:06:42;;;;;;;;;;;;;;;7.89;100.00;97914.88;5120295;28;20568;-62
2022/11/07 01:09:09;;;;;;;;;;;;;;;7.98;100.00;97923.25;5123111;28;19930;-63
2022/11/07 01:11:38;;;;;;;;;;;;;;;8.03;100.00;97926.78;5123760;28;19924;-63
2022/11/07 01:14:04;;;;;;;;;;;;;;;8.14;100.00;97925.03;5120951;28;19924;-62
2022/11/07 01:16:34;;;;;;;;;;;;;;;8.07;100.00;97929.75;5120177;28;19967;-63
2022/11/07 01:19:00;;;;;;;;;;;;;;;8.02;100.00;97925.16;5121871;28;20020;-62
2022/11/07 01:21:26;;;;;;;;;;;;;;;8.01;100.00;97933.41;5123262;28;19924;-63
2022/11/07 01:23:53;;;;;;;;;;;;;;;8.12;100.00;97925.28;5128684;28;19991;-63
2022/11/07 01:26:19;;;;;;;;;;;;;;;8.27;100.00;97919.34;5119919;28;20023;-64
2022/11/07 01:28:47;;;;;;;;;;;;;;;8.32;100.00;97924.78;5119923;28;19962;-63
2022/11/07 01:31:14;;;;;;;;;;;;;;;8.24;100.00;97930.50;5110976;28;20742;-62
2022/11/07 01:33:41;;;;;;;;;;;;;;;8.34;100.00;97937.81;5111765;28;20020;-62
2022/11/07 01:36:08;;;;;;;;;;;;;;;8.36;100.00;97928.53;5111329;28;19995;-63
2022/11/07 01:38:35;;;;;;;;;;;;;;;8.42;100.00;97934.72;5111343;28;19991;-63
2022/11/07 01:43:48;;;;;;;;;;;;;;;8.03;100.00;97921.47;5111231;28;19985;-63
2022/11/07 01:46:15;;;;;;;;;;;;;;;8.03;100.00;97920.66;5119705;28;19960;-63
2022/11/07 01:48:44;;;;;;;;;;;;;;;8.09;100.00;97924.97;5119520;28;20093;-63
2022/11/07 01:51:11;;;;;;;;;;;;;;;8.18;100.00;97920.84;5122777;28;19924;-62
2022/11/07 01:53:38;;;;;;;;;;;;;;;8.20;100.00;97921.38;5129369;28;19979;-62
2022/11/07 01:56:09;;;;;;;;;;;;;;;8.10;100.00;97927.41;5120377;28;19992;-63
2022/11/07 01:58:35;;;;;;;;;;;;;;;8.08;100.00;97926.03;5119380;28;19987;-62
2022/11/07 02:01:03;;;;;;;;;;;;;;;8.00;100.00;97921.13;5121289;28;20009;-63
2022/11/07 02:03:30;;;;;;;;;;;;;;;7.99;100.00;97930.97;5122473;28;20018;-64
2022/11/07 02:05:58;;;;;;;;;;;;;;;8.07;100.00;97924.44;5121149;28;19979;-62
2022/11/07 02:08:26;;;;;;;;;;;;;;;8.11;100.00;97933.50;5118872;28;19980;-62
2022/11/07 02:10:53;;;;;;;;;;;;;;;8.09;100.00;97932.97;5119720;28;19931;-62
2022/11/07 02:13:22;;;;;;;;;;;;;;;8.12;100.00;97940.44;5122363;28;19970;-62
2022/11/07 02:15:49;;;;;;;;;;;;;;;8.28;100.00;97934.31;5122025;28;19920;-62
2022/11/07 02:18:17;;;;;;;;;;;;;;;8.34;100.00;97938.63;5118612;28;19954;-63
2022/11/07 02:20:43;;;;;;;;;;;;;;;8.33;100.00;97938.88;5118819;28;19971;-62
2022/11/07 02:23:13;;;;;;;;;;;;;;;8.13;100.00;97934.91;5127890;28;19934;-62
2022/11/07 02:25:40;;;;;;;;;;;;;;;8.19;100.00;97932.28;5104040;28;20015;-62
2022/11/07 02:28:08;;;;;;;;;;;;;;;8.21;100.00;97935.50;5119173;28;19991;-63
2022/11/07 02:30:34;;;;;;;;;;;;;;;8.15;100.00;97934.63;5118533;28;19924;-62
2022/11/07 02:33:01;;;;;;;;;;;;;;;8.11;100.00;97938.81;5120656;28;19990;-63
2022/11/07 02:35:38;;;;;;;;;;;;;;;8.21;100.00;97948.81;5122217;28;19970;-62
2022/11/07 02:38:06;;;;;;;;;;;;;;;8.10;100.00;97948.69;5119588;28;19963;-62
2022/11/07 02:40:33;;;;;;;;;;;;;;;8.11;100.00;97950.28;5118425;28;19991;-63
2022/11/07 02:43:01;;;;;;;;;;;;;;;8.12;100.00;97956.41;5119492;28;19991;-63
2022/11/07 02:45:29;;;;;;;;;;;;;;;8.07;100.00;97943.06;5121997;28;19924;-62
2022/11/07 02:47:55;;;;;;;;;;;;;;;8.12;100.00;97943.91;5102368;28;19919;-62
2022/11/07 02:50:22;;;;;;;;;;;;;;;8.19;100.00;97949.06;5118321;28;19939;-62
2022/11/07 02:52:48;;;;;;;;;;;;;;;8.17;100.00;97947.69;5124612;28;19931;-62
2022/11/07 02:55:15;;;;;;;;;;;;;;;8.18;100.00;97955.41;5121674;28;19963;-62
2022/11/07 02:57:41;;;;;;;;;;;;;;;8.11;100.00;97952.13;5121778;28;19995;-62
2022/11/07 03:00:10;;;;;;;;;;;;;;;8.12;100.00;97961.72;5118625;28;19928;-62
2022/11/07 03:02:37;;;;;;;;;;;;;;;8.12;100.00;97956.41;5117876;28;19992;-62
2022/11/07 03:05:03;;;;;;;;;;;;;;;8.13;100.00;97955.38;5120464;28;19992;-62
2022/11/07 03:07:30;;;;;;;;;;;;;;;8.17;100.00;97958.34;5121415;28;19968;-62
2022/11/07 03:09:56;;;;;;;;;;;;;;;8.14;100.00;97957.75;5120024;28;19991;-62
2022/11/07 03:12:22;;;;;;;;;;;;;;;8.06;100.00;97960.84;5117970;28;20537;-62
2022/11/07 03:14:49;;;;;;;;;;;;;;;8.07;100.00;97953.69;5118050;28;19980;-62
2022/11/07 03:17:16;;;;;;;;;;;;;;;8.01;100.00;97973.28;5121464;28;19951;-62
2022/11/07 03:19:43;;;;;;;;;;;;;;;8.08;100.00;97971.25;5121310;28;20492;-63
2022/11/07 03:22:09;;;;;;;;;;;;;;;8.05;100.00;97972.53;5119120;28;20019;-62
2022/11/07 03:24:35;;;;;;;;;;;;;;;8.02;100.00;97967.72;5123031;28;19984;-62
2022/11/07 03:27:02;;;;;;;;;;;;;;;8.00;100.00;97974.31;5119908;28;19975;-62
2022/11/07 03:29:28;;;;;;;;;;;;;;;8.00;100.00;97982.31;5121109;28;19924;-62
2022/11/07 03:31:54;;;;;;;;;;;;;;;8.01;100.00;97981.25;5120191;28;19932;-62
2022/11/07 03:34:22;;;;;;;;;;;;;;;8.02;100.00;97985.50;5117673;28;20255;-61
2022/11/07 03:36:48;;;;;;;;;;;;;;;8.02;100.00;97993.50;5117957;28;20004;-61
2022/11/07 03:39:15;;;;;;;;;;;;;;;7.99;100.00;97989.47;5121185;28;19927;-63
2022/11/07 03:41:41;;;;;;;;;;;;;;;8.00;100.00;97993.75;5121009;28;20004;-62
2022/11/07 03:44:07;;;;;;;;;;;;;;;7.99;100.00;97988.66;5118083;28;19928;-62
2022/11/07 03:46:34;;;;;;;;;;;;;;;8.03;100.00;97995.13;5117526;28;19992;-63
2022/11/07 03:49:00;;;;;;;;;;;;;;;8.05;100.00;98003.66;5119320;28;19931;-62
2022/11/07 03:51:28;;;;;;;;;;;;;;;8.04;100.00;98005.53;5120913;28;19959;-62
2022/11/07 03:53:54;;;;;;;;;;;;;;;8.02;100.00;98004.94;5128627;28;20010;-62
2022/11/07 03:56:20;;;;;;;;;;;;;;;8.05;100.00;98008.97;5121530;28;19987;-61
2022/11/07 03:58:47;;;;;;;;;;;;;;;8.10;100.00;98017.03;5121549;28;19970;-62
2022/11/07 04:01:13;;;;;;;;;;;;;;;8.07;100.00;98012.19;5121420;28;19987;-62
2022/11/07 04:03:39;;;;;;;;;;;;;;;8.09;100.00;98020.72;5121005;28;19980;-63
2022/11/07 04:06:06;;;;;;;;;;;;;;;8.08;100.00;98027.91;5124073;28;19988;-62
2022/11/07 04:08:33;;;;;;;;;;;;;;;8.00;100.00;98035.50;5124615;28;20039;-62
2022/11/07 04:11:00;;;;;;;;;;;;;;;8.03;100.00;98033.16;5122886;28;19994;-62
2022/11/07 04:18:50;;;;;;;;;;;;;;;8.07;100.00;98036.13;5089460;28;19924;-62
2022/11/07 04:21:17;;;;;;;;;;;;;;;8.03;100.00;98037.66;5121028;28;20430;-63
2022/11/07 04:23:44;;;;;;;;;;;;;;;8.02;100.00;98014.78;5128951;28;20031;-61
2022/11/07 04:28:54;;;;;;;;;;;;;;;8.02;100.00;98014.78;5121996;28;19955;-62
2022/11/07 04:31:21;;;;;;;;;;;;;;;8.08;100.00;98021.78;5124154;28;19924;-62
2022/11/07 04:33:48;;;;;;;;;;;;;;;8.10;100.00;98017.84;5106041;28;19924;-62
2022/11/07 04:36:14;;;;;;;;;;;;;;;8.05;100.00;98023.06;5120684;28;20003;-62
2022/11/07 04:38:40;;;;;;;;;;;;;;;8.04;100.00;98023.34;5121124;28;19925;-62
2022/11/07 04:41:17;;;;;;;;;;;;;;;7.97;100.00;98030.66;5123572;28;19936;-63
2022/11/07 04:43:43;;;;;;;;;;;;;;;7.89;100.00;98025.75;5124311;28;19987;-63
2022/11/07 04:46:10;;;;;;;;;;;;;;;7.87;100.00;98022.53;5120788;28;19931;-63
2022/11/07 04:48:36;;;;;;;;;;;;;;;7.88;100.00;98019.63;5120408;28;19928;-62
2022/11/07 04:51:03;;;;;;;;;;;;;;;7.96;100.00;98029.03;5122849;28;19983;-62
2022/11/07 04:53:29;;;;;;;;;;;;;;;7.96;100.00;98029.84;5130106;28;19951;-62
2022/11/07 04:55:55;;;;;;;;;;;;;;;7.94;100.00;98031.16;5122524;28;20047;-63
2022/11/07 04:58:23;;;;;;;;;;;;;;;7.97;100.00;98038.63;5120374;28;19987;-61
2022/11/07 05:00:49;;;;;;;;;;;;;;;8.07;100.00;98033.47;5120209;28;19924;-63
2022/11/07 05:03:15;;;;;;;;;;;;;;;7.99;100.00;98031.22;5124136;28;19999;-63
2022/11/07 05:05:42;;;;;;;;;;;;;;;7.95;100.00;98051.38;5123226;28;19924;-63
2022/11/07 05:08:08;;;;;;;;;;;;;;;7.90;100.00;98044.13;5120409;28;19979;-62
2022/11/07 05:10:35;;;;;;;;;;;;;;;8.04;100.00;98039.28;5119882;28;19924;-63
2022/11/07 05:13:01;;;;;;;;;;;;;;;8.21;100.00;98040.06;5121787;28;20015;-62
2022/11/07 05:15:28;;;;;;;;;;;;;;;8.19;100.00;98039.50;5123250;28;19928;-62
2022/11/07 05:17:55;;;;;;;;;;;;;;;8.21;100.00;98048.03;5121901;28;19924;-62
2022/11/07 05:20:29;;;;;;;;;;;;;;;8.21;100.00;98048.03;5119851;28;19940;-62
2022/11/07 05:25:39;;;;;;;;;;;;;;;8.05;100.00;98046.19;5123266;28;19927;-62
2022/11/07 05:28:06;;;;;;;;;;;;;;;8.02;100.00;98050.16;5120756;28;19974;-62
2022/11/07 05:30:37;;;;;;;;;;;;;;;8.03;100.00;98058.94;5119536;28;19931;-62
2022/11/07 05:33:03;;;;;;;;;;;;;;;8.02;100.00;98054.66;5121842;28;20066;-63
2022/11/07 05:35:30;;;;;;;;;;;;;;;8.06;100.00;98053.94;5122897;28;19983;-63
2022/11/07 05:37:56;;;;;;;;;;;;;;;8.04;100.00;98049.94;5121624;28;19969;-62
2022/11/07 05:40:22;;;;;;;;;;;;;;;8.02;100.00;98062.63;5119683;28;19995;-63
2022/11/07 05:42:49;;;;;;;;;;;;;;;8.06;100.00;98069.09;5119499;28;19966;-63
2022/11/07 05:45:15;;;;;;;;;;;;;;;8.18;100.00;98071.66;5122697;28;20010;-63
2022/11/07 05:47:43;;;;;;;;;;;;;;;8.30;100.00;98064.41;5122809;28;19987;-64
2022/11/07 05:50:09;;;;;;;;;;;;;;;8.40;100.00;98061.91;5119554;28;20023;-62
2022/11/07 05:52:36;;;;;;;;;;;;;;;8.30;100.00;98065.22;5123992;28;20018;-63
2022/11/07 05:55:02;;;;;;;;;;;;;;;8.20;100.00;98054.41;5122832;28;19988;-62
2022/11/07 05:57:29;;;;;;;;;;;;;;;8.06;100.00;98058.47;5122692;28;19959;-62
2022/11/07 05:59:55;;;;;;;;;;;;;;;8.09;100.00;98056.13;5121726;28;20058;-63
2022/11/07 06:02:21;;;;;;;;;;;;;;;8.05;100.00;98065.63;5118682;28;19946;-61
2022/11/07 06:04:49;;;;;;;;;;;;;;;7.96;100.00;98060.94;5119079;28;20019;-62
2022/11/07 06:07:15;;;;;;;;;;;;;;;7.95;100.00;98067.34;5122258;28;19951;-62
2022/11/07 06:09:42;;;;;;;;;;;;;;;7.86;100.00;98079.44;5122393;28;19930;-63
2022/11/07 06:12:08;;;;;;;;;;;;;;;7.83;100.00;98080.69;5119831;28;19955;-62
2022/11/07 06:14:34;;;;;;;;;;;;;;;7.78;100.00;98072.63;5118818;28;20497;-62
2022/11/07 06:17:01;;;;;;;;;;;;;;;7.64;100.00;98070.53;5120586;28;20015;-62
2022/11/07 06:19:27;;;;;;;;;;;;;;;7.60;100.00;98079.00;5122345;28;19928;-63
2022/11/07 06:21:55;;;;;;;;;;;;;;;7.54;100.00;98077.28;5121216;28;19927;-63
2022/11/07 06:24:21;;;;;;;;;;;;;;;7.64;100.00;98078.50;5124991;28;19963;-62
2022/11/07 06:26:47;;;;;;;;;;;;;;;7.67;100.00;98070.06;5118675;28;19956;-62
2022/11/07 06:29:13;;;;;;;;;;;;;;;7.60;100.00;98081.66;5122121;28;19934;-62
2022/11/07 06:31:40;;;;;;;;;;;;;;;7.82;100.00;98103.03;5122193;28;19975;-61
2022/11/07 06:34:06;;;;;;;;;;;;;;;7.96;100.00;98087.53;5119160;28;19979;-61
2022/11/07 06:36:32;;;;;;;;;;;;;;;7.78;100.00;98095.75;5118344;28;20015;-62
2022/11/07 06:39:00;;;;;;;;;;;;;;;7.86;100.00;98098.81;5120122;28;19959;-62
2022/11/07 06:41:26;;;;;;;;;;;;;;;7.86;100.00;98085.53;5121700;28;20014;-62
2022/11/07 06:43:53;;;;;;;;;;;;;;;7.61;100.00;98093.09;5120811;28;20350;-62
2022/11/07 06:46:21;;;;;;;;;;;;;;;7.60;100.00;98096.78;5100092;28;19928;-62
2022/11/07 06:48:48;;;;;;;;;;;;;;;7.71;100.00;98093.25;5118332;28;19924;-62
2022/11/07 06:51:14;;;;;;;;;;;;;;;7.90;100.00;98104.47;5121681;28;19991;-62
2022/11/07 06:53:40;;;;;;;;;;;;;;;7.84;100.00;98113.41;5109998;28;19970;-62
2022/11/07 06:56:12;;;;;;;;;;;;;;;7.65;100.00;98115.47;5118988;28;19962;-62
2022/11/07 06:58:38;;;;;;;;;;;;;;;7.61;100.00;98117.78;5118336;28;19980;-62
2022/11/07 07:01:07;;;;;;;;;;;;;;;7.76;100.00;98121.78;5120955;28;20028;-62
2022/11/07 07:03:33;;;;;;;;;;;;;;;7.74;100.00;98129.19;5121679;28;20348;-67
2022/11/07 07:06:00;;;;;;;;;;;;;;;7.71;100.00;98134.97;5119741;28;19924;-63
2022/11/07 07:08:27;;;;;;;;;;;;;;;7.65;100.00;98136.72;5118008;28;19928;-62
2022/11/07 07:10:53;;;;;;;;;;;;;;;7.69;100.00;98139.72;5118649;28;20602;-62
2022/11/07 07:13:21;;;;;;;;;;;;;;;7.67;100.00;98145.28;5121603;28;19963;-62
2022/11/07 07:15:52;;;;;;;;;;;;;;;7.60;100.00;98142.78;5103157;28;19924;-62
2022/11/07 07:18:19;;;;;;;;;;;;;;;7.62;100.00;98147.84;5117662;28;19931;-62
2022/11/07 07:20:45;;;;;;;;;;;;;;;7.64;100.00;98145.78;5099647;28;19926;-62
2022/11/07 07:23:11;;;;;;;;;;;;;;;7.72;100.00;98150.69;5127375;28;19924;-62
2022/11/07 07:25:38;;;;;;;;;;;;;;;7.71;100.00;98156.22;5121004;28;19927;-63
2022/11/07 07:28:04;;;;;;;;;;;;;;;7.68;100.00;98148.72;5118446;28;19924;-62
2022/11/07 07:30:32;;;;;;;;;;;;;;;7.64;100.00;98151.09;5117723;28;19931;-62
2022/11/07 07:32:58;;;;;;;;;;;;;;;7.67;100.00;98149.81;5119420;28;19988;-63
2022/11/07 07:35:24;;;;;;;;;;;;;;;7.75;100.00;98152.06;5121076;28;19935;-62
2022/11/07 07:37:51;;;;;;;;;;;;;;;8.00;100.00;98157.81;5120525;28;20038;-62
2022/11/07 07:40:18;;;;;;;;;;;;;;;8.06;100.00;98143.56;5117534;28;19936;-62
2022/11/07 07:42:44;;;;;;;;;;;;;;;7.85;100.00;98146.94;5117885;28;19924;-62
2022/11/07 07:45:11;;;;;;;;;;;;;;;7.92;100.00;98158.22;5120989;28;19923;-62
2022/11/07 07:47:39;;;;;;;;;;;;;;;7.93;100.00;98155.31;5121312;28;19991;-61
2022/11/07 07:50:06;;;;;;;;;;;;;;;7.90;100.00;98144.34;5118500;28;19924;-62
2022/11/07 07:52:33;;;;;;;;;;;;;;;7.97;100.00;98145.00;5122190;28;19924;-64
2022/11/07 07:54:59;;;;;;;;;;;;;;;7.98;100.00;98146.63;5121150;28;19930;-64
2022/11/07 07:57:25;;;;;;;;;;;;;;;8.04;100.00;98151.81;5120968;28;19935;-62
2022/11/07 07:59:52;;;;;;;;;;;;;;;8.13;100.00;98142.38;5120550;28;20424;-63
2022/11/07 08:02:18;;;;;;;;;;;;;;;8.18;100.00;98148.81;5117489;28;19928;-63
2022/11/07 08:04:46;;;;;;;;;;;;;;;8.20;100.00;98144.84;5117806;28;19943;-62
2022/11/07 08:07:12;;;;;;;;;;;;;;;8.14;100.00;98161.78;5121095;28;20018;-63
2022/11/07 08:09:38;;;;;;;;;;;;;;;8.14;100.00;98140.50;5121413;28;20003;-63
2022/11/07 08:12:07;;;;;;;;;;;;;;;8.11;100.00;98146.31;5118755;28;19963;-66
2022/11/07 08:14:33;;;;;;;;;;;;;;;8.12;100.00;98146.06;5117866;28;19932;-63
2022/11/07 08:17:00;;;;;;;;;;;;;;;8.09;100.00;98153.72;5101249;28;20018;-63
2022/11/07 08:19:26;;;;;;;;;;;;;;;8.24;100.00;98147.84;5121146;28;19958;-64
2022/11/07 08:21:54;;;;;;;;;;;;;;;8.26;100.00;98143.91;5120031;28;19924;-63
2022/11/07 08:24:20;;;;;;;;;;;;;;;8.32;100.00;98145.63;5123893;28;19924;-63
2022/11/07 08:26:47;;;;;;;;;;;;;;;8.39;100.00;98158.75;5117308;28;19928;-63
2022/11/07 08:29:13;;;;;;;;;;;;;;;8.48;100.00;98158.09;5108871;28;20716;-63
2022/11/07 08:31:39;;;;;;;;;;;;;;;8.44;100.00;98167.66;5090925;28;19978;-62
2022/11/07 08:34:05;;;;;;;;;;;;;;;8.50;100.00;98158.69;5108740;28;19936;-63
2022/11/07 08:36:32;;;;;;;;;;;;;;;8.52;100.00;98166.41;5108628;28;19964;-62
2022/11/07 08:38:59;;;;;;;;;;;;;;;8.51;100.00;98168.25;5108599;28;19974;-62
2022/11/07 08:41:26;;;;;;;;;;;;;;;8.58;100.00;98160.94;5111324;28;19930;-62
2022/11/07 08:43:52;;;;;;;;;;;;;;;8.60;100.00;98164.13;5111736;28;19963;-62
2022/11/07 08:46:18;;;;;;;;;;;;;;;8.72;100.00;98168.59;5112305;28;19996;-64
2022/11/07 08:48:45;;;;;;;;;;;;;;;8.77;100.00;98171.31;5112138;28;19975;-62
2022/11/07 08:51:11;;;;;;;;;;;;;;;8.76;100.00;98173.16;5112122;28;19984;-63
2022/11/07 08:53:37;;;;;;;;;;;;;;;8.85;100.00;98174.34;5125703;28;20014;-62
2022/11/07 08:56:06;;;;;;;;;;;;;;;8.89;100.00;98164.81;5121776;28;19967;-64
2022/11/07 08:58:32;;;;;;;;;;;;;;;8.87;100.00;98153.63;5120358;28;19924;-62
2022/11/07 09:00:59;;;;;;;;;;;;;;;8.91;100.00;98162.72;5121806;28;19928;-62
2022/11/07 09:03:25;;;;;;;;;;;;;;;9.10;100.00;98160.56;5123556;28;19976;-63
2022/11/07 09:05:52;;;;;;;;;;;;;;;9.14;100.00;98153.69;5123204;28;19924;-63
2022/11/07 09:08:19;;;;;;;;;;;;;;;9.16;100.00;98149.72;5120015;28;19952;-62
2022/11/07 09:10:45;;;;;;;;;;;;;;;9.27;100.00;98149.84;5120101;28;19995;-63
2022/11/07 09:13:13;;;;;;;;;;;;;;;9.27;100.00;98166.66;5123209;28;19924;-63
2022/11/07 09:15:40;;;;;;;;;;;;;;;9.29;100.00;98163.72;5123376;28;19946;-63
2022/11/07 09:18:06;;;;;;;;;;;;;;;9.37;100.00;98171.31;5120720;28;19920;-63
2022/11/07 09:20:33;;;;;;;;;;;;;;;9.44;100.00;98166.59;5120103;28;19987;-64
2022/11/07 09:22:59;;;;;;;;;;;;;;;9.46;100.00;98165.28;5128001;28;20011;-63
2022/11/07 09:25:26;;;;;;;;;;;;;;;9.50;100.00;98161.06;5123556;28;19935;-63
2022/11/07 09:27:53;;;;;;;;;;;;;;;9.56;100.00;98162.72;5122666;28;20420;-62
2022/11/07 09:30:21;;;;;;;;;;;;;;;9.58;100.00;98168.63;5119643;28;19924;-62
2022/11/07 09:32:47;;;;;;;;;;;;;;;9.57;100.00;98168.84;5120263;28;20000;-62
2022/11/07 09:35:14;;;;;;;;;;;;;;;9.69;100.00;98167.66;5112261;28;19968;-62
2022/11/07 09:37:41;;;;;;;;;;;;;;;9.70;100.00;98165.81;5114017;28;19966;-62
2022/11/07 09:40:15;;;;;;;;;;;;;;;9.71;100.00;98168.25;5111442;28;19983;-61
2022/11/07 09:42:44;;;;;;;;;;;;;;;9.83;100.00;98167.28;5111945;28;19980;-63
2022/11/07 09:45:13;;;;;;;;;;;;;;;9.96;100.00;98161.53;5110684;28;19987;-62
2022/11/07 09:47:42;;;;;;;;;;;;;;;9.97;100.00;98171.94;5110886;28;19934;-62
2022/11/07 09:50:12;;;;;;;;;;;;;;;9.88;100.00;98161.97;5110397;28;19951;-62
2022/11/07 09:52:41;;;;;;;;;;;;;;;10.00;100.00;98165.28;5115251;28;19930;-62
2022/11/07 09:55:13;;;;;;;;;;;;;;;10.11;100.00;98162.50;5104266;28;19995;-62
2022/11/07 09:57:39;;;;;;;;;;;;;;;10.20;100.00;98162.84;5122677;28;19930;-63
2022/11/07 10:00:09;;;;;;;;;;;;;;;10.23;100.00;98165.03;5120211;28;19934;-63
2022/11/07 10:02:40;;;;;;;;;;;;;;;10.23;100.00;98162.34;5119041;28;19924;-62
2022/11/07 10:05:13;;;;;;;;;;;;;;;10.37;100.00;98154.72;5121530;28;19990;-63
2022/11/07 10:07:41;;;;;;;;;;;;;;;10.40;100.00;98157.66;5122622;28;20522;-62
2022/11/07 10:10:13;;;;;;;;;;;;;;;10.36;100.00;98163.78;5119587;28;19938;-63
2022/11/07 10:12:52;;;;;;;;;;;;;;;10.43;100.00;98151.03;5119122;28;19963;-63
2022/11/07 10:15:23;;;;;;;;;;;;;;;10.56;100.00;98150.56;5092287;28;19931;-62
2022/11/07 10:17:54;;;;;;;;;;;;;;;10.63;100.00;98138.63;5110384;28;19934;-63
2022/11/07 10:20:29;;;;;;;;;;;;;;;10.70;100.00;98149.91;5110304;28;19983;-62
2022/11/07 10:23:01;;;;;;;;;;;;;;;10.74;100.00;98152.84;5117931;28;19983;-63
2022/11/07 10:25:29;;;;;;;;;;;;;;;10.71;100.00;98161.34;5122431;28;19963;-63
2022/11/07 10:28:05;;;;;;;;;;;;;;;10.71;100.00;98164.03;5121326;28;19924;-63
2022/11/07 10:30:31;;;;;;;;;;;;;;;10.68;100.00;98160.00;5118726;28;19995;-62
2022/11/07 10:33:01;;;;;;;;;;;;;;;10.76;100.00;98156.88;5120135;28;19995;-63
2022/11/07 10:35:30;;;;;;;;;;;;;;;10.88;100.00;98155.88;5122375;28;19981;-62
2022/11/07 10:37:58;;;;;;;;;;;;;;;10.93;100.00;98154.00;5120765;28;19994;-62
2022/11/07 10:40:27;;;;;;;;;;;;;;;10.98;100.00;98146.03;5118517;28;19939;-63
2022/11/07 10:42:53;;;;;;;;;;;;;;;10.95;100.00;98145.75;5119244;28;19924;-63
2022/11/07 10:45:20;;;;;;;;;;;;;;;10.85;100.00;98138.50;5122135;28;19930;-62
2022/11/07 10:47:57;;;;;;;;;;;;;;;11.12;100.00;98141.03;5122134;28;19963;-63
2022/11/07 10:50:24;;;;;;;;;;;;;;;11.25;100.00;98145.91;5110096;28;19931;-62
2022/11/07 10:52:56;;;;;;;;;;;;;;;11.30;100.00;98137.88;5116548;28;19924;-63
2022/11/07 10:55:22;;;;;;;;;;;;;;;11.27;100.00;98149.09;5122019;28;19928;-63
2022/11/07 10:57:52;;;;;;;;;;;;;;;10.80;100.00;98152.59;5121779;28;19924;-64
2022/11/07 11:00:23;;;;;;;;;;;;;;;11.13;100.00;98150.66;5118212;28;19935;-63
2022/11/07 11:02:49;;;;;;;;;;;;;;;11.33;100.00;98146.19;5117409;28;20411;-63
2022/11/07 11:05:19;;;;;;;;;;;;;;;11.30;100.00;98141.38;5121809;28;20009;-65
2022/11/07 11:07:46;;;;;;;;;;;;;;;11.33;100.00;98140.03;5121458;28;20008;-62
2022/11/07 11:10:19;;;;;;;;;;;;;;;11.38;100.00;98135.53;5117647;28;19955;-62
2022/11/07 11:12:46;;;;;;;;;;;;;;;11.48;100.00;98133.97;5117933;28;19950;-62
2022/11/07 11:15:14;;;;;;;;;;;;;;;11.55;100.00;98129.94;5121154;28;19928;-62
2022/11/07 11:17:40;;;;;;;;;;;;;;;11.60;100.00;98116.59;5121289;28;20329;-62
2022/11/07 11:20:08;;;;;;;;;;;;;;;11.63;100.00;98116.06;5118643;28;20062;-62
2022/11/07 11:22:39;;;;;;;;;;;;;;;11.88;100.00;98110.78;5122469;28;19931;-62
2022/11/07 11:25:16;;;;;;;;;;;;;;;12.02;100.00;98115.59;5121245;28;19958;-63
2022/11/07 11:27:45;;;;;;;;;;;;;;;12.14;100.00;98116.94;5121432;28;19958;-63
2022/11/07 11:30:15;;;;;;;;;;;;;;;12.29;100.00;98108.91;5117681;28;19962;-62
2022/11/07 11:32:45;;;;;;;;;;;;;;;12.25;100.00;98096.34;5125014;28;20007;-62
2022/11/07 11:35:17;;;;;;;;;;;;;;;12.32;100.00;98094.97;5117854;28;19959;-62
2022/11/07 11:37:46;;;;;;;;;;;;;;;12.46;100.00;98089.88;5117703;28;19963;-62
2022/11/07 11:40:16;;;;;;;;;;;;;;;12.22;100.00;98086.16;5120816;28;20019;-63
2022/11/07 11:42:48;;;;;;;;;;;;;;;11.96;100.00;98085.38;5121055;28;19978;-62
2022/11/07 11:45:15;;;;;;;;;;;;;;;11.54;100.00;98074.88;5117634;28;19924;-63
2022/11/07 11:47:45;;;;;;;;;;;;;;;11.05;100.00;98073.66;5117396;28;20470;-63
2022/11/07 11:50:14;;;;;;;;;;;;;;;11.20;100.00;98079.06;5120646;28;19962;-63
2022/11/07 11:52:41;;;;;;;;;;;;;;;10.84;100.00;98078.91;5120842;28;19928;-62
2022/11/07 11:55:12;;;;;;;;;;;;;;;11.09;100.00;98077.41;5120832;28;19987;-62
2022/11/07 11:57:43;;;;;;;;;;;;;;;11.15;100.00;98054.97;5120965;28;19966;-63
2022/11/07 12:00:14;;;;;;;;;;;;;;;11.48;100.00;98049.16;5117937;28;19983;-62
2022/11/07 12:03:00;;;;;;;;;;;;;;;11.16;100.00;98056.56;5117172;28;19928;-63
2022/11/07 12:05:34;;;;;;;;;;;;;;;11.18;100.00;98051.75;5108796;28;19979;-62
2022/11/07 12:08:09;;;;;;;;;;;;;;;11.06;100.00;98056.53;5108873;28;19931;-62
2022/11/07 12:10:41;;;;;;;;;;;;;;;11.28;100.00;98054.47;5108959;28;19928;-63
2022/11/07 12:13:10;;;;;;;;;;;;;;;11.31;100.00;98049.41;5109101;28;19946;-63
2022/11/07 12:15:45;;;;;;;;;;;;;;;11.60;100.00;98049.72;5112336;28;19996;-63
2022/11/07 12:18:18;;;;;;;;;;;;;;;11.47;100.00;98044.88;5112697;28;19987;-62
2022/11/07 12:20:52;;;;;;;;;;;;;;;11.45;100.00;98027.50;5112722;28;19979;-63
2022/11/07 12:23:26;;;;;;;;;;;;;;;11.55;100.00;98033.66;5123359;28;19973;-63
2022/11/07 12:25:55;;;;;;;;;;;;;;;11.37;100.00;98042.19;5124135;28;19924;-63
2022/11/07 12:28:31;;;;;;;;;;;;;;;11.43;100.00;98032.31;5120881;28;19934;-62
2022/11/07 12:31:04;;;;;;;;;;;;;;;11.35;100.00;98020.28;5122207;28;19963;-62
2022/11/07 12:33:34;;;;;;;;;;;;;;;11.35;100.00;98033.66;5124392;28;19946;-63
2022/11/07 12:36:01;;;;;;;;;;;;;;;11.35;100.00;98028.28;5122540;28;19923;-64
2022/11/07 12:38:42;;;;;;;;;;;;;;;11.47;100.00;98020.81;5120773;28;19932;-63
2022/11/07 12:41:16;;;;;;;;;;;;;;;11.50;100.00;98024.84;5123379;28;19962;-63
2022/11/07 12:43:51;;;;;;;;;;;;;;;11.54;100.00;98026.72;5124171;28;20026;-63
2022/11/07 12:46:25;;;;;;;;;;;;;;;11.46;100.00;98024.56;5119538;28;19971;-63
2022/11/07 12:49:09;;;;;;;;;;;;;;;11.46;100.00;98027.22;5120905;28;20496;-62
2022/11/07 12:51:43;;;;;;;;;;;;;;;11.55;100.00;98030.19;5124266;28;19934;-63
2022/11/07 12:54:15;;;;;;;;;;;;;;;11.66;100.00;98021.91;5128091;28;19963;-63
2022/11/07 12:56:42;;;;;;;;;;;;;;;11.54;100.00;98021.38;5121019;28;20366;-63
2022/11/07 12:59:12;;;;;;;;;;;;;;;11.56;100.00;98024.56;5123712;28;19928;-64
2022/11/07 13:01:45;;;;;;;;;;;;;;;11.58;100.00;98011.72;5124380;28;19970;-63
2022/11/07 13:04:13;;;;;;;;;;;;;;;11.82;100.00;98023.53;5121006;28;19923;-63